createdAt,value
2017-12-23T00:00:11.924Z,25.93
2017-12-23T00:02:38.352Z,26.70
2017-12-23T00:05:04.741Z,26.70
2017-12-23T00:07:31.146Z,25.03
2017-12-23T00:09:57.568Z,26.70
2017-12-23T00:12:24.013Z,26.07
2017-12-23T00:14:50.450Z,26.47
2017-12-23T00:17:16.837Z,25.00
2017-12-23T00:19:43.221Z,26.73
2017-12-23T00:22:09.682Z,27.37
2017-12-23T00:24:36.138Z,25.87
2017-12-23T00:27:03.169Z,26.50
2017-12-23T00:29:29.570Z,27.50
2017-12-23T00:31:55.969Z,25.93
2017-12-23T00:34:30.524Z,26.77
2017-12-23T00:36:56.870Z,27.50
2017-12-23T00:39:23.312Z,26.80
2017-12-23T00:41:49.728Z,25.77
2017-12-23T00:44:16.146Z,28.70
2017-12-23T00:46:42.508Z,27.37
2017-12-23T00:49:09.021Z,25.97
2017-12-23T00:51:35.382Z,25.40
2017-12-23T00:54:01.744Z,25.70
2017-12-23T00:56:28.144Z,25.53
2017-12-23T00:58:54.539Z,25.77
2017-12-23T01:01:21.028Z,27.03
2017-12-23T01:03:47.421Z,25.20
2017-12-23T01:06:13.805Z,26.23
2017-12-23T01:08:40.205Z,27.30
2017-12-23T01:11:06.708Z,26.47
2017-12-23T01:13:33.117Z,25.07
2017-12-23T01:15:59.525Z,24.47
2017-12-23T01:18:25.978Z,24.63
2017-12-23T01:20:52.393Z,25.03
2017-12-23T01:23:18.821Z,24.77
2017-12-23T01:25:45.241Z,26.40
2017-12-23T01:28:11.636Z,25.63
2017-12-23T01:30:38.030Z,24.30
2017-12-23T01:33:04.481Z,25.23
2017-12-23T01:35:30.920Z,26.97
2017-12-23T01:37:57.324Z,25.93
2017-12-23T01:40:23.768Z,26.00
2017-12-23T01:42:50.193Z,27.47
2017-12-23T01:45:16.571Z,25.67
2017-12-23T01:47:43.013Z,25.13
2017-12-23T01:50:09.426Z,23.97
2017-12-23T01:52:35.857Z,25.57
2017-12-23T01:55:02.346Z,24.53
2017-12-23T01:57:28.768Z,23.93
2017-12-23T01:59:55.153Z,22.30
2017-12-23T02:02:21.569Z,21.73
2017-12-23T02:04:47.973Z,21.53
2017-12-23T02:07:14.352Z,20.50
2017-12-23T02:09:40.886Z,18.97
2017-12-23T02:12:07.317Z,19.30
2017-12-23T02:14:33.716Z,19.13
2017-12-23T02:17:00.132Z,19.13
2017-12-23T02:19:26.525Z,17.80
2017-12-23T02:21:52.949Z,16.83
2017-12-23T02:24:19.341Z,16.70
2017-12-23T02:26:45.705Z,16.07
2017-12-23T02:29:12.097Z,15.83
2017-12-23T02:31:38.572Z,15.17
2017-12-23T02:34:05.019Z,13.60
2017-12-23T02:36:31.416Z,14.50
2017-12-23T02:38:57.893Z,13.60
2017-12-23T02:41:24.397Z,13.40
2017-12-23T02:43:50.860Z,14.00
2017-12-23T02:46:17.345Z,13.40
2017-12-23T02:48:43.677Z,14.47
2017-12-23T02:51:10.105Z,15.30
2017-12-23T02:53:36.542Z,15.43
2017-12-23T02:56:02.970Z,14.90
2017-12-23T02:58:29.354Z,14.53
2017-12-23T03:00:55.788Z,15.37
2017-12-23T03:03:22.141Z,14.83
2017-12-23T03:05:48.625Z,14.93
2017-12-23T03:08:15.217Z,16.00
2017-12-23T03:10:41.624Z,15.57
2017-12-23T03:13:08.025Z,14.73
2017-12-23T03:15:34.469Z,14.60
2017-12-23T03:18:00.836Z,16.03
2017-12-23T03:20:27.204Z,15.23
2017-12-23T03:22:53.668Z,15.43
2017-12-23T03:25:20.074Z,16.27
2017-12-23T03:27:46.520Z,16.10
2017-12-23T03:30:12.979Z,15.43
2017-12-23T03:32:39.391Z,14.13
2017-12-23T03:35:05.801Z,13.63
2017-12-23T03:37:32.252Z,14.83
2017-12-23T03:39:58.669Z,14.37
2017-12-23T03:42:25.123Z,13.23
2017-12-23T03:44:51.619Z,15.20
2017-12-23T03:47:17.981Z,14.97
2017-12-23T03:49:44.336Z,13.70
2017-12-23T03:52:10.725Z,14.30
2017-12-23T03:54:37.097Z,14.23
2017-12-23T03:57:03.513Z,13.03
2017-12-23T03:59:29.905Z,13.77
2017-12-23T04:01:56.305Z,13.33
2017-12-23T04:04:22.686Z,13.13
2017-12-23T04:06:49.101Z,12.23
2017-12-23T04:09:15.453Z,13.67
2017-12-23T04:11:41.903Z,12.10
2017-12-23T04:14:08.425Z,12.50
2017-12-23T04:16:34.856Z,11.60
2017-12-23T04:19:01.329Z,12.40
2017-12-23T04:21:27.766Z,12.73
2017-12-23T04:23:54.141Z,13.13
2017-12-23T04:26:20.573Z,11.70
2017-12-23T04:28:47.017Z,11.67
2017-12-23T04:31:13.391Z,11.17
2017-12-23T04:33:39.811Z,11.07
2017-12-23T04:36:06.305Z,11.07
2017-12-23T04:38:32.692Z,9.87
2017-12-23T04:40:59.116Z,10.67
2017-12-23T04:43:25.501Z,10.90
2017-12-23T04:45:51.908Z,11.07
2017-12-23T04:48:18.308Z,9.07
2017-12-23T04:50:44.716Z,8.83
2017-12-23T04:53:11.140Z,10.00
2017-12-23T04:55:37.541Z,9.30
2017-12-23T04:58:04.034Z,8.50
2017-12-23T05:00:30.425Z,8.90
2017-12-23T05:02:56.857Z,8.73
2017-12-23T05:05:23.260Z,8.40
2017-12-23T05:07:49.634Z,8.90
2017-12-23T05:10:15.997Z,8.63
2017-12-23T05:12:42.456Z,8.40
2017-12-23T05:15:08.876Z,8.57
2017-12-23T05:17:35.269Z,8.47
2017-12-23T05:20:01.729Z,8.00
2017-12-23T05:22:28.125Z,8.40
2017-12-23T05:24:54.485Z,8.37
2017-12-23T05:27:20.970Z,8.73
2017-12-23T05:29:47.313Z,9.17
2017-12-23T05:32:13.688Z,9.13
2017-12-23T05:34:40.078Z,8.60
2017-12-23T05:37:07.001Z,9.77
2017-12-23T05:39:33.377Z,9.50
2017-12-23T05:41:59.793Z,8.83
2017-12-23T05:44:26.228Z,9.50
2017-12-23T05:46:52.596Z,10.87
2017-12-23T05:49:19.010Z,10.37
2017-12-23T05:51:45.357Z,10.23
2017-12-23T05:54:11.714Z,10.20
2017-12-23T05:56:38.205Z,10.00
2017-12-23T05:59:04.579Z,9.73
2017-12-23T06:01:30.963Z,10.90
2017-12-23T06:03:57.472Z,10.13
2017-12-23T06:06:23.901Z,10.63
2017-12-23T06:08:50.384Z,10.87
2017-12-23T06:11:16.931Z,10.87
2017-12-23T06:13:43.364Z,10.87
2017-12-23T06:16:09.738Z,10.40
2017-12-23T06:18:36.143Z,10.67
2017-12-23T06:21:02.557Z,10.83
2017-12-23T06:23:28.921Z,10.23
2017-12-23T06:25:55.326Z,10.63
2017-12-23T06:28:21.837Z,11.07
2017-12-23T06:30:48.229Z,10.70
2017-12-23T06:33:14.702Z,11.43
2017-12-23T06:35:41.109Z,11.50
2017-12-23T06:38:07.517Z,11.37
2017-12-23T06:40:34.013Z,11.23
2017-12-23T06:43:00.379Z,11.27
2017-12-23T06:45:26.777Z,11.73
2017-12-23T06:47:53.217Z,11.00
2017-12-23T06:50:19.617Z,10.30
2017-12-23T06:52:46.005Z,10.67
2017-12-23T06:55:12.462Z,10.47
2017-12-23T06:57:38.853Z,11.30
2017-12-23T07:00:05.201Z,11.83
2017-12-23T07:02:31.669Z,11.70
2017-12-23T07:04:58.121Z,14.10
2017-12-23T07:07:24.485Z,14.97
2017-12-23T07:09:50.977Z,12.90
2017-12-23T07:12:17.466Z,15.67
2017-12-23T07:14:43.837Z,15.63
2017-12-23T07:17:10.242Z,14.50
2017-12-23T07:19:36.593Z,14.40
2017-12-23T07:22:02.974Z,13.93
2017-12-23T07:24:29.393Z,13.80
2017-12-23T07:26:55.740Z,14.43
2017-12-23T07:29:22.096Z,14.83
2017-12-23T07:31:48.522Z,17.13
2017-12-23T07:34:14.894Z,19.23
2017-12-23T07:36:41.269Z,19.73
2017-12-23T07:39:07.781Z,16.60
2017-12-23T07:41:34.199Z,18.83
2017-12-23T07:44:00.596Z,19.20
2017-12-23T07:46:27.065Z,17.50
2017-12-23T07:48:53.481Z,18.20
2017-12-23T07:51:19.892Z,17.47
2017-12-23T07:53:46.289Z,15.50
2017-12-23T07:56:12.664Z,15.10
2017-12-23T07:58:39.049Z,13.53
2017-12-23T08:01:05.504Z,12.40
2017-12-23T08:03:31.879Z,12.10
2017-12-23T08:05:58.368Z,14.27
2017-12-23T08:08:24.881Z,14.57
2017-12-23T08:10:51.313Z,14.97
2017-12-23T08:13:17.744Z,14.00
2017-12-23T08:15:44.177Z,14.97
2017-12-23T08:18:10.570Z,14.90
2017-12-23T08:20:36.994Z,16.50
2017-12-23T08:23:03.424Z,16.50
2017-12-23T08:25:29.793Z,14.50
2017-12-23T08:27:56.198Z,15.90
2017-12-23T08:30:22.601Z,14.27
2017-12-23T08:32:48.981Z,15.43
2017-12-23T08:35:15.406Z,14.93
2017-12-23T08:37:41.923Z,15.07
2017-12-23T08:40:08.306Z,14.13
2017-12-23T08:42:34.825Z,12.90
2017-12-23T08:45:01.221Z,14.77
2017-12-23T08:47:27.609Z,14.27
2017-12-23T08:49:53.989Z,19.40
2017-12-23T08:52:20.389Z,14.97
2017-12-23T08:54:46.752Z,13.60
2017-12-23T08:57:14.953Z,12.73
2017-12-23T08:59:41.436Z,14.50
2017-12-23T09:02:07.814Z,20.53
2017-12-23T09:04:34.209Z,17.73
2017-12-23T09:07:00.664Z,20.10
2017-12-23T09:09:27.060Z,18.03
2017-12-23T09:11:53.494Z,17.47
2017-12-23T09:14:19.886Z,16.57
2017-12-23T09:16:46.333Z,14.27
2017-12-23T09:19:12.735Z,14.93
2017-12-23T09:21:39.156Z,15.90
2017-12-23T09:24:05.510Z,14.27
2017-12-23T09:26:31.931Z,12.97
2017-12-23T09:28:58.381Z,13.03
2017-12-23T09:31:24.782Z,13.37
2017-12-23T09:33:51.113Z,13.97
2017-12-23T09:36:17.526Z,13.10
2017-12-23T09:38:43.891Z,13.57
2017-12-23T09:41:10.270Z,12.33
2017-12-23T09:43:36.770Z,14.60
2017-12-23T09:46:03.108Z,13.03
2017-12-23T09:48:29.525Z,13.30
2017-12-23T09:50:55.966Z,13.73
2017-12-23T09:53:22.349Z,12.67
2017-12-23T09:55:48.737Z,13.97
2017-12-23T09:58:15.152Z,14.37
2017-12-23T10:00:41.525Z,12.90
2017-12-23T10:03:07.967Z,12.60
2017-12-23T10:05:34.421Z,13.37
2017-12-23T10:08:00.889Z,14.60
2017-12-23T10:10:27.301Z,15.03
2017-12-23T10:12:53.709Z,12.87
2017-12-23T10:15:20.153Z,13.53
2017-12-23T10:17:46.837Z,11.37
2017-12-23T10:20:13.282Z,13.00
2017-12-23T10:22:39.662Z,12.70
2017-12-23T10:25:06.066Z,12.83
2017-12-23T10:27:32.557Z,11.73
2017-12-23T10:29:58.966Z,11.63
2017-12-23T10:32:25.337Z,13.33
2017-12-23T10:34:51.745Z,10.83
2017-12-23T10:37:18.144Z,12.77
2017-12-23T10:39:44.507Z,13.40
2017-12-23T10:42:10.893Z,13.13
2017-12-23T10:44:37.321Z,11.63
2017-12-23T10:47:03.692Z,10.10
2017-12-23T10:49:30.149Z,12.27
2017-12-23T10:51:56.497Z,12.30
2017-12-23T10:54:22.937Z,12.93
2017-12-23T10:56:49.388Z,12.80
2017-12-23T10:59:15.749Z,12.27
2017-12-23T11:01:42.150Z,13.83
2017-12-23T11:04:08.649Z,14.33
2017-12-23T11:06:35.115Z,16.37
2017-12-23T11:09:01.513Z,18.33
2017-12-23T11:11:27.974Z,18.63
2017-12-23T11:13:54.375Z,18.00
2017-12-23T11:16:20.757Z,20.43
2017-12-23T11:18:47.175Z,22.00
2017-12-23T11:21:13.566Z,21.53
2017-12-23T11:23:39.949Z,20.80
2017-12-23T11:26:06.413Z,22.23
2017-12-23T11:28:32.866Z,20.17
2017-12-23T11:30:59.230Z,16.70
2017-12-23T11:33:25.815Z,18.73
2017-12-23T11:35:52.375Z,18.70
2017-12-23T11:38:18.825Z,18.47
2017-12-23T11:40:45.315Z,17.77
2017-12-23T11:43:11.725Z,14.70
2017-12-23T11:45:38.147Z,16.37
2017-12-23T11:48:04.618Z,16.60
2017-12-23T11:50:30.981Z,16.97
2017-12-23T11:52:57.426Z,17.43
2017-12-23T11:55:23.893Z,19.20
2017-12-23T11:57:50.268Z,20.03
2017-12-23T12:00:16.683Z,18.53
2017-12-23T12:02:44.142Z,20.40
2017-12-23T12:05:10.566Z,22.17
2017-12-23T12:07:37.013Z,21.70
2017-12-23T12:10:03.442Z,20.60
2017-12-23T12:12:29.830Z,21.87
2017-12-23T12:14:56.346Z,21.40
2017-12-23T12:46:39.534Z,26.75
2017-12-23T12:49:06.015Z,21.40
2017-12-23T12:51:32.467Z,18.37
2017-12-23T12:53:58.905Z,18.47
2017-12-23T12:56:25.324Z,18.77
2017-12-23T12:58:51.729Z,19.93
2017-12-23T13:01:18.189Z,17.07
2017-12-23T13:03:44.626Z,16.93
2017-12-23T13:06:11.029Z,17.83
2017-12-23T13:08:37.484Z,20.33
2017-12-23T13:11:03.926Z,21.33
2017-12-23T13:13:30.347Z,18.07
2017-12-23T13:15:56.777Z,16.43
2017-12-23T13:18:23.198Z,15.13
2017-12-23T13:20:50.230Z,14.23
2017-12-23T13:23:16.644Z,15.03
2017-12-23T13:25:43.033Z,13.20
2017-12-23T13:28:09.442Z,14.37
2017-12-23T13:30:35.885Z,14.80
2017-12-23T13:33:02.329Z,16.13
2017-12-23T13:35:28.774Z,16.30
2017-12-23T13:37:55.266Z,20.50
2017-12-23T13:40:21.680Z,18.47
2017-12-23T13:42:48.105Z,14.03
2017-12-23T13:45:14.531Z,16.27
2017-12-23T13:47:40.942Z,13.17
2017-12-23T13:50:07.403Z,15.17
2017-12-23T13:52:33.826Z,13.57
2017-12-23T13:55:00.216Z,13.17
2017-12-23T13:57:26.666Z,13.57
2017-12-23T13:59:53.121Z,15.50
2017-12-23T14:02:19.567Z,15.73
2017-12-23T14:04:45.999Z,14.37
2017-12-23T14:07:12.430Z,15.60
2017-12-23T14:09:38.816Z,16.20
2017-12-23T14:12:05.852Z,14.53
2017-12-23T14:14:32.471Z,13.70
2017-12-23T14:16:58.848Z,14.37
2017-12-23T14:19:25.314Z,15.27
